2014 - Thriller 5K Thriller 5K


2014 - Thriller 5K

Overall Finish List

October 17, 2014


Classic Race Services, LLC Classic Race Services

Thriller 5K

Place Name City Bib No Age Gender Age Group Total Time Pace
1 Tommy Templeman Snellville GA 921 18 M 1 15-19 17:55.0 5:47/M
2 Jason Childre Milledgeville GA 382 45 M 1 45-49 20:00.7 6:27/M
3 Colin Shirley Powder Springs GA 234 20 M 1 20-24 20:38.6 6:39/M
4 Christian Griffith Norcross GA 91 44 M 1 40-44 21:09.1 6:49/M
5 Bekah Houston Rocky Face GA 317 20 F 1 20-24 21:12.3 6:50/M
6 Jonathan Golden Roswell GA 304 20 M 2 20-24 21:13.8 6:51/M
7 Max Anderson Fayetteville GA 380 18 M 2 15-19 21:23.4 6:54/M
8 Maddie Anderskow Macon GA 388 20 F 2 20-24 21:31.0 6:56/M
9 Jordan Norville Milledgeville GA 186 28 M 1 25-29 21:38.7 6:59/M
10 Donnie Chaffin Hampton GA 341 54 M 1 50-54 21:53.8 7:04/M
11 Jonathan Erickson Dawsonville GA 379 20 M 3 20-24 21:58.9 7:05/M
12 Dona Watkins Saint Simons Island GA 325 46 F 1 45-49 22:20.8 7:12/M
13 Josh Coffey 390 29 M 2 25-29 22:27.7 7:15/M
14 David Youngblood Milledgeville GA 299 19 M 3 15-19 22:32.4 7:16/M
15 Cameron Jackson Milledgeville GA 117 21 M 4 20-24 22:36.6 7:17/M
16 Kayla Vanboven Milledgeville GA 348 24 F 3 20-24 22:40.8 7:19/M
17 Mark Stephens Loganville GA 251 49 M 2 45-49 22:45.7 7:20/M
18 Kevin Byrd Eatonton GA 34 17 M 4 15-19 23:02.4 7:26/M
19 Joshua Hudson Eatonton GA 114 17 M 5 15-19 23:02.7 7:26/M
20 Trevor Palmer Sautee Nacoochee GA 190 18 M 6 15-19 23:06.3 7:27/M
21 Brad Bell Milledgeville GA 333 46 M 3 45-49 23:35.7 7:36/M
22 Colin Moore Milledgeville GA 173 39 M 1 35-39 23:41.8 7:38/M
23 Will Mickelens 374 21 M 5 20-24 23:46.6 7:40/M
24 Patrick Gartland Milledgeville GA 361 45 M 4 45-49 23:49.8 7:41/M
25 Alyssa Varsalona Marietta GA 273 19 F 1 15-19 23:52.1 7:42/M
26 Torianna Wilson Alpharetta GA 384 20 F 4 20-24 23:53.3 7:42/M
27 Edward Starling Mcintyre GA 249 38 M 2 35-39 23:57.1 7:44/M
28 Kevin Howard Martinez GA 112 20 M 6 20-24 24:12.7 7:48/M
29 Margo Rothstein Athens GA 320 18 F 2 15-19 24:19.9 7:51/M
30 Grier Marzendorfer 349 20 F 5 20-24 24:26.1 7:53/M
31 Patrick Sieland Milledgeville GA 383 20 M 7 20-24 24:42.2 7:58/M
32 Jimmy Shea Milledgeville GA 233 20 M 8 20-24 24:42.7 7:58/M
33 Griffin Smith Milledgeville GA 313 21 M 9 20-24 24:46.3 7:59/M
34 Peyton White Marietta GA 387 20 F 6 20-24 24:50.1 8:01/M
35 Miles Skedsvold Atlanta GA 241 20 M 10 20-24 24:58.5 8:03/M
36 Hannah Aiken Atlanta GA 2 19 F 3 15-19 25:21.0 8:11/M
37 Jacob McCranie Eatonton GA 159 19 M 7 15-19 25:22.9 8:11/M
38 Jim Moore Alpharetta GA 177 52 M 2 50-54 25:27.4 8:13/M
39 Christina Pitts Milledgeville GA 197 19 F 4 15-19 25:29.2 8:13/M
40 Gary Usry Greensboro GA 271 49 M 5 45-49 25:30.1 8:14/M
41 Tori Pateuk Johns Creek GA 192 20 F 7 20-24 25:34.1 8:15/M
42 Natalie Cummings Loganville GA 50 12 F 1 11-14 25:41.0 8:17/M
43 Emory Martin Peachtree City GA 359 18 F 5 15-19 25:43.5 8:18/M
44 Amy Cummings Loganville GA 49 38 F 1 35-39 25:46.5 8:19/M
45 Daniel Trust Bonaire GA 381 23 M 11 20-24 25:51.5 8:20/M
46 Abbigale Sparks Milledgeville GA 247 22 F 8 20-24 25:52.6 8:21/M
47 Martin Mickalonis 373 52 M 3 50-54 25:52.8 8:21/M
48 Suzy Ricks Harlem GA 210 23 F 9 20-24 26:31.5 8:33/M
49 Riko Ricks Harlem GA 209 24 M 12 20-24 26:32.5 8:34/M
50 Carla La Rotta Milledgeville GA 133 21 F 10 20-24 26:40.1 8:36/M
51 Paige Reyhan Marietta GA 346 23 F 11 20-24 27:13.7 8:47/M
52 Brad Williams Augusta GA 286 23 M 13 20-24 27:14.2 8:47/M
53 Melissa Bryan Bishop GA 29 21 F 12 20-24 27:14.5 8:47/M
54 Jack Johnston Mansfield GA 122 15 M 8 15-19 27:17.6 8:48/M
55 Timmy Murphy Marietta GA 179 19 M 9 15-19 27:25.0 8:51/M
56 Julia Eck Milledgeville GA 350 20 F 13 20-24 27:33.6 8:53/M
57 Shannon Roper Monticello GA 216 32 F 1 30-34 27:36.5 8:54/M
58 Em Baynes Greensboro GA 13 20 F 14 20-24 27:45.5 8:57/M
59 Jackson Smith Alpharetta GA 385 17 M 10 15-19 27:45.9 8:57/M
60 Morgan Barnhardt Suwanee GA 11 20 M 14 20-24 27:49.9 8:58/M
61 Hannah Garlick Woodstock GA 79 19 F 6 15-19 27:51.7 8:59/M
62 Lucas Schiavinato Suwanee GA 221 16 M 11 15-19 28:11.6 9:05/M
63 Sean Carflon 370 21 M 15 20-24 28:12.8 9:06/M
64 Thomas Adams 369 19 M 12 15-19 28:13.5 9:06/M
65 Taylor Crow Cumming GA 48 20 F 15 20-24 28:17.1 9:07/M
66 Nora Stone Lawrenceville GA 254 18 F 7 15-19 28:49.1 9:18/M
67 Terry Stone Lawrenceville GA 255 56 M 1 55-59 28:49.3 9:18/M
68 Emma Kane Cumming GA 128 18 F 8 15-19 28:55.6 9:20/M
69 Matthew Weiss Johns Creek GA 279 20 M 16 20-24 28:58.8 9:21/M
70 Eric Griffeth Milledgeville GA 343 26 M 3 25-29 29:15.0 9:26/M
71 Steven Wright Milledgeville GA 298 25 M 4 25-29 29:18.6 9:27/M
72 Mackenzie Roux Milledgeville GA 217 18 F 9 15-19 29:18.8 9:27/M
73 Sarah Sinclair Duluth GA 239 19 F 10 15-19 29:31.8 9:31/M
74 Tony Wolf Roswell GA 295 53 M 4 50-54 29:36.1 9:33/M
75 Megan Simons Marietta GA 237 19 F 11 15-19 29:39.0 9:34/M
76 Marissa Tillisun Marietta GA 307 20 F 16 20-24 29:49.4 9:37/M
77 Mason Mitchell Farmington GA 311 13 M 1 11-14 30:04.5 9:42/M
78 Cameron Walters Watkinsville GA 276 18 F 12 15-19 30:04.8 9:42/M
79 Matthew Stubbs Milledgeville GA 258 33 M 1 30-34 30:16.1 9:46/M
80 Nath Bacon Milledgeville GA 322 34 M 2 30-34 30:16.3 9:46/M
81 Hallie Cheek Hull GA 40 35 F 2 35-39 30:19.4 9:47/M
82 Tyler Russell Buckhead GA 218 19 M 13 15-19 30:19.6 9:47/M
83 Joann Mallory Lawrenceville GA 148 19 F 13 15-19 30:20.0 9:47/M
84 Tara Mayfield Milledgeville GA 154 20 F 17 20-24 30:31.5 9:51/M
85 Bryson Threatt Milledgeville GA 268 20 M 17 20-24 30:31.8 9:51/M
86 Ashley Harrington Milledgeville GA 335 41 F 1 40-44 30:40.6 9:54/M
87 Laci Zielinski Watkinsville GA 300 34 F 2 30-34 30:45.1 9:55/M
88 Devin Fakhook Milledgeville GA 67 20 M 18 20-24 30:46.7 9:55/M
89 Tommy Gilstrap Mcdonough GA 330 57 M 2 55-59 31:02.8 10:01/M
90 Kellie Shirley Powder Springs GA 236 21 F 18 20-24 31:11.7 10:04/M
91 Kim Michalonis Warner Robins GA 375 50 F 1 50-54 31:18.5 10:06/M
92 Steve Hebling 996 62 M 1 60-64 31:23.2 10:07/M
93 Kelsie McDuffie Milledgeville GA 160 20 F 19 20-24 31:30.6 10:10/M
94 Amy Miller Monroe GA 64 31 F 3 30-34 31:49.2 10:16/M
95 Austin Henry Brookhaven GA 105 19 M 14 15-19 32:11.4 10:23/M
96 Jared Hawkins Milledgeville GA 98 26 M 5 25-29 32:13.0 10:24/M
97 Clark Mayfield Flowery Branch GA 153 51 M 5 50-54 32:30.9 10:29/M
98 Emily Dunn Milledgeville GA 61 19 F 14 15-19 32:35.3 10:31/M
99 Delaney Pearson Milledgeville GA 378 10 F 1 0-10 32:36.7 10:31/M
100 Eve Wise Johns Creek GA 292 18 F 15 15-19 32:39.2 10:32/M
 
Place Name City Bib No Age Gender Age Group Total Time Pace
101 Callie Waters Milledgeville GA 277 18 F 16 15-19 32:39.9 10:32/M
102 Amy Glantzberg Acworth GA 87 19 F 17 15-19 32:40.4 10:32/M
103 Jake Hester Winder GA 108 20 M 19 20-24 33:04.5 10:40/M
104 Cayla Brantley Milledgeville GA 23 20 F 20 20-24 33:05.2 10:40/M
105 Babette Griffith Atlanta GA 90 43 F 2 40-44 33:15.5 10:44/M
106 Dawn Wood Marietta GA 297 44 F 3 40-44 33:17.8 10:44/M
107 Andrea Rainoff Milledgeville GA 389 20 F 21 20-24 33:27.1 10:47/M
108 Tom Glover Milledgeville GA 88 44 M 2 40-44 33:28.6 10:48/M
109 Will Newman Milledgeville GA 182 20 M 20 20-24 33:46.9 10:54/M
110 Leeann Robinson Milledgeville GA 212 36 F 3 35-39 33:51.4 10:55/M
111 Hannah Watkins Saint Simons Island GA 326 28 F 1 25-29 33:54.1 10:56/M
112 Candace Griffeth Milledgeville GA 344 26 F 2 25-29 33:58.1 10:57/M
113 Kaylin Thomason Madison GA 266 21 F 22 20-24 34:03.7 10:59/M
114 Jamie Moore Milledgeville GA 175 21 F 23 20-24 34:04.5 10:59/M
115 Kelly Higgins Marietta GA 321 18 F 18 15-19 34:15.2 11:03/M
116 Sydney Huseby Roswell GA 115 19 F 19 15-19 34:15.5 11:03/M
117 David Middleton 392 28 M 6 25-29 34:17.8 11:04/M
118 Daniel Cameron Milledgeville GA 342 32 M 3 30-34 34:21.3 11:05/M
119 Dannielle Maldonado Milledgeville GA 360 44 F 4 40-44 34:24.8 11:06/M
120 Amber Segers Demorest GA 225 25 F 3 25-29 34:25.3 11:06/M
121 Caeli Chambers Demorest GA 39 19 F 20 15-19 34:25.8 11:06/M
122 Jordan Salinas Macon GA 376 19 F 21 15-19 34:29.8 11:07/M
123 Rachael Herringdine Milledgeville GA 107 27 F 4 25-29 34:30.2 11:08/M
124 Stephanie Welch Eatonton GA 280 45 F 2 45-49 34:30.7 11:08/M
125 David Thompson 377 41 M 3 40-44 34:38.1 11:10/M
126 Lisa Larson Alpharetta GA 137 43 F 5 40-44 34:38.4 11:10/M
127 Ellis Larson Alpharetta GA 136 19 F 22 15-19 34:38.9 11:10/M
128 Nicole Mandato 364 19 F 23 15-19 34:39.5 11:11/M
129 Kaiti Lucas Sandersville GA 145 21 F 24 20-24 34:40.1 11:11/M
130 Aaron Jackson Gordon GA 391 28 M 7 25-29 34:55.9 11:16/M
131 Shannon Stubbs Milledgeville GA 323 29 F 5 25-29 35:11.7 11:21/M
132 April Ledbetter Dacula GA 138 19 F 24 15-19 35:12.7 11:21/M
133 Cassidy Culberson Dacula GA 328 19 F 25 15-19 35:12.9 11:21/M
134 Katherine Malcolm Marietta GA 327 19 F 26 15-19 35:13.1 11:22/M
135 Michael Marques Milledgeville GA 149 18 M 15 15-19 35:15.4 11:22/M
136 Abby Snow Milledgeville GA 336 12 F 2 11-14 35:27.0 11:26/M
137 Jordan Arnold Alpharetta GA 6 19 F 27 15-19 35:27.6 11:26/M
138 Kacie Bapst Cumming GA 10 18 F 28 15-19 35:27.8 11:26/M
139 Rachel Renbarger Duluth GA 206 18 F 29 15-19 35:35.3 11:29/M
140 Brittany Steele Acworth GA 250 28 F 6 25-29 35:44.6 11:32/M
141 Melanie Hornibrook Monticello GA 976 29 F 7 25-29 35:48.9 11:33/M
142 Alex Herren Gray GA 106 29 F 8 25-29 35:49.1 11:33/M
143 Payton Burchfield Sharpsburg GA 31 20 F 25 20-24 35:49.5 11:33/M
144 John Hoerner Auburn AL 111 20 M 21 20-24 35:49.7 11:33/M
145 Hannah Hagley Newnan GA 96 20 F 26 20-24 35:56.0 11:35/M
146 Julie Coppedge Milledgeville GA 44 21 F 27 20-24 35:56.2 11:35/M
147 Katherine Blaha Kennesaw GA 19 18 F 30 15-19 36:24.1 11:45/M
148 Madison Cravey Milledgeville GA 45 19 F 31 15-19 36:24.5 11:45/M
149 Juliet Malcom Monroe GA 147 45 F 3 45-49 36:34.4 11:48/M
150 Max Grimm Atlanta GA 94 29 M 8 25-29 36:46.1 11:52/M
151 Jennifer Jacobs Cumming GA 118 18 F 32 15-19 37:04.0 11:57/M
152 Anna-Lynn Hickey Milledgeville GA 109 18 F 33 15-19 37:21.5 12:03/M
153 Angie Harper Macon GA 97 46 F 4 45-49 37:31.8 12:06/M
154 Kaitlin Reedy Gordon ACT 201 21 F 28 20-24 37:48.0 12:12/M
155 Claire Thompson Covington GA 267 29 F 9 25-29 37:59.6 12:15/M
156 Daniel Teets Haddock GA 263 39 M 3 35-39 38:05.8 12:17/M
157 Natalie Daniel Covington GA 51 24 F 29 20-24 38:09.6 12:18/M
158 Gary Schreter Norcross GA 224 48 M 6 45-49 38:13.6 12:20/M
159 Dawn Schreter Norcross GA 223 47 F 5 45-49 38:33.2 12:26/M
160 Keith Kelly Dublin GA 365 42 M 4 40-44 38:38.3 12:28/M
161 Michelle Finley Loganville GA 73 48 F 6 45-49 38:39.4 12:28/M
162 Layne Newman Milledgeville GA 181 20 F 30 20-24 39:08.4 12:37/M
163 Jenifer Moore Alpharetta GA 176 20 F 31 20-24 39:21.4 12:42/M
164 Terri Mayfield Flowery Branch GA 155 49 F 7 45-49 39:28.9 12:44/M
165 Taylor Widuch Milledgeville GA 284 25 F 10 25-29 39:38.3 12:47/M
166 Ali Orr Athens GA 187 22 F 32 20-24 39:44.8 12:49/M
167 Garol Orr Braselton GA 189 51 F 2 50-54 39:51.5 12:51/M
168 Mandi Brewer Lawrenceville GA 25 18 F 34 15-19 39:52.4 12:52/M
169 Susan Bloom Atlanta GA 337 19 F 35 15-19 39:53.2 12:52/M
170 Kailey Page Monticello GA 318 20 F 33 20-24 39:59.4 12:54/M
171 Boston Forbes Woodstock GA 357 11 M 2 11-14 40:30.7 13:04/M
172 Brett Card Milledgeville GA 37 20 M 22 20-24 40:35.0 13:05/M
173 Karen Meeks Sparta GA 164 51 F 3 50-54 40:35.8 13:05/M
174 Jack Forbes Woodstock GA 356 13 M 3 11-14 40:38.6 13:06/M
175 Amy Winfrey Milledgeville GA 291 27 F 11 25-29 40:53.0 13:11/M
176 Dustin Jenkins Atlanta GA 120 32 M 4 30-34 40:53.4 13:11/M
177 Peyton Janes Greensboro GA 119 22 M 23 20-24 40:53.8 13:11/M
178 Dana Durham Greensboro GA 63 20 F 34 20-24 40:54.2 13:12/M
179 Clare Baggett Cartersville GA 8 16 F 36 15-19 41:11.5 13:17/M
180 Kate Justus Cartersville GA 127 16 F 37 15-19 41:11.9 13:17/M
181 Amber Reeves Covington GA 202 34 F 4 30-34 41:24.8 13:21/M
182 Jenniofer Lee Stockbridge GA 351 32 F 5 30-34 41:28.5 13:23/M
183 Lauren Nielly Canton GA 183 18 F 38 15-19 41:43.1 13:27/M
184 Trenton Little Buford GA 340 18 M 16 15-19 41:45.7 13:28/M
185 John Adams Daphne AL 1 36 M 4 35-39 41:47.8 13:29/M
186 Cheryl Forbes Woodstock GA 354 48 F 8 45-49 42:10.3 13:36/M
187 Tom Dent Macon GA 58 21 M 24 20-24 42:16.1 13:38/M
188 Timothy Dykes Gordon GA 353 23 M 25 20-24 42:18.8 13:39/M
189 Amber Stubbs Gordon GA 352 23 F 35 20-24 42:21.5 13:40/M
190 Briana Lee Milledgeville GA 338 23 F 36 20-24 42:27.0 13:42/M
191 Catherine Wolf Roswell GA 294 51 F 4 50-54 42:32.9 13:43/M
192 Alexa Deleva Marietta GA 57 20 F 37 20-24 42:34.6 13:44/M
193 Margaret Robinson Moultrie GA 214 19 F 39 15-19 42:35.2 13:44/M
194 Clay Dungan Milledgeville GA 60 28 M 9 25-29 42:38.1 13:45/M
195 Stacey Keaton Milledgeville GA 129 45 F 9 45-49 42:38.5 13:45/M
196 Rick Schiavinato Suwanee GA 222 48 M 7 45-49 42:40.9 13:46/M
197 Amber Akers Valdosta GA 3 19 F 40 15-19 42:46.6 13:48/M
198 Jennifer Minshew Milledgeville GA 169 29 F 12 25-29 42:48.1 13:48/M
199 Jennifer Sokolow Milledgeville GA 245 19 F 41 15-19 42:50.7 13:49/M
200 Cindi Lee Milledgeville GA 339 56 F 1 55-59 42:51.0 13:49/M
 
Place Name City Bib No Age Gender Age Group Total Time Pace
201 Madison Feuerbach Norcross GA 69 18 F 42 15-19 42:58.9 13:52/M
202 Briana Rondinone Alpharetta GA 215 19 F 43 15-19 43:00.5 13:52/M
203 Katie Lee 8379 19 F 44 15-19 43:00.8 13:52/M
204 Maddie Von Bereghy Milton GA 274 18 F 45 15-19 43:01.1 13:53/M
205 Bailey Fabricius Fayetteville GA 66 18 F 46 15-19 43:08.0 13:55/M
206 Louise Studdard Atlanta GA 259 19 F 47 15-19 43:11.5 13:56/M
207 Emma Nortje Clarkston GA 185 18 F 48 15-19 43:11.7 13:56/M
208 Pamela Gallo Peachtree City GA 78 47 F 10 45-49 43:37.5 14:04/M
209 Patrick Noonan Peachtree City GA 184 53 M 6 50-54 43:37.9 14:04/M
210 Kaitlin Forbes Smyrna GA 77 19 F 49 15-19 43:40.6 14:05/M
211 Josie Bagwell Milledgeville GA 9 19 F 50 15-19 43:46.2 14:07/M
212 Christal Reincher Jonesboro GA 203 19 F 51 15-19 43:46.6 14:07/M
213 Brittany McCranie Eatonton GA 158 16 F 52 15-19 44:39.9 14:24/M
214 Brooke Moore Eatonton GA 171 19 F 53 15-19 44:40.1 14:25/M
215 Wesley Ayres Eatonton GA 7 17 M 17 15-19 44:40.5 14:25/M
216 Hutch Wheeler Bartow GA 282 13 M 4 11-14 44:59.4 14:31/M
217 Heather Beck Eatonton GA 14 20 F 38 20-24 45:18.4 14:37/M
218 Brian Finley Loganville GA 71 43 M 5 40-44 45:30.6 14:41/M
219 Marcus Robinson Milledgeville GA 213 38 M 5 35-39 45:32.7 14:41/M
220 Christian Finley Loganville GA 72 11 M 5 11-14 45:59.7 14:50/M
221 Elizabeth Gillis Suwanee GA 86 18 F 54 15-19 46:04.8 14:52/M
222 John Forbes Woodstock GA 355 53 M 7 50-54 46:11.3 14:54/M
223 Makayla Chrismon Alpharetta GA 41 18 F 55 15-19 46:29.5 15:00/M
224 Nicole Justice Canton GA 125 19 F 56 15-19 46:33.9 15:01/M
225 Danielle Matthews Sugar Hill GA 152 18 F 57 15-19 46:38.8 15:03/M
226 Morgan Henderson Sugar Hill GA 104 19 F 58 15-19 46:40.9 15:03/M
227 Jenna Grimes Milledgeville GA 93 27 F 13 25-29 46:50.8 15:06/M
228 Niki Smith Milledgeville GA 243 33 F 6 30-34 47:05.3 15:11/M
229 Kimberly Smith Milledgeville GA 242 14 F 3 11-14 47:05.7 15:11/M
230 Jeff Kleemeier Mcdonough GA 131 49 M 8 45-49 47:23.1 15:17/M
231 Sheila Kleemeier Mcdonough GA 132 52 F 5 50-54 47:24.1 15:17/M
232 Claudia De La Rosa Alpharetta GA 53 18 F 59 15-19 47:33.1 15:20/M
233 Stan Mitchell Farmington GA 312 51 M 8 50-54 48:11.3 15:33/M
234 Scarlett Mitchell Farmington GA 310 49 F 11 45-49 48:15.1 15:34/M
235 Chloe Parker Milledgeville GA 191 20 F 39 20-24 48:16.7 15:34/M
236 Lindsey Sewell Bremen GA 232 18 F 60 15-19 48:32.8 15:39/M
237 Julie Sewell Bremen GA 230 54 F 6 50-54 48:43.1 15:43/M
238 Jeanna Sanders Byron GA 219 33 F 7 30-34 48:47.1 15:44/M
239 Jamie Heber Fort Valley GA 99 33 F 8 30-34 48:51.1 15:45/M
240 Bryce Blewett Springfield GA 22 20 M 26 20-24 49:05.2 15:50/M
241 Caitlyn Dupre Eatotonton GA 62 19 F 61 15-19 49:06.4 15:50/M
242 Sydney Chacon Sautee Nacoochee GA 38 19 F 62 15-19 49:06.6 15:50/M
243 Caroline Elliott Alpharetta GA 65 18 F 63 15-19 49:10.8 15:52/M
244 Ashton Serff Alpharetta GA 226 18 F 64 15-19 49:11.0 15:52/M
245 Thomas Linski Milledgeville GA 142 75 M 1 75-99 49:59.9 16:07/M
246 Melinda Heidt Marietta GA 101 55 F 2 55-59 50:17.4 16:13/M
247 Kaitlin Heidt Milledgeville GA 100 19 F 65 15-19 50:18.4 16:14/M
248 Penelope Beck Mcdonough GA 15 54 F 7 50-54 50:31.3 16:18/M
249 Crystal Taylor Milledgeville GA 363 32 F 9 30-34 50:52.3 16:25/M
250 Cindy Bissonnette Sautee Nacoochee GA 17 41 F 6 40-44 50:59.8 16:27/M
251 Roger Wilkes Demorest GA 285 68 M 1 65-69 51:07.3 16:29/M
252 Alyssa Bissonnette Sautee Nacoochee GA 16 12 F 4 11-14 51:14.8 16:32/M
253 Joe Paschal Milledgeville GA 316 33 M 5 30-34 51:25.8 16:35/M
254 Melanie Denton Milledgeville GA 59 50 F 8 50-54 52:43.0 17:00/M
255 Nick Gillian Milledgeville GA 84 9 M 1 0-10 52:46.0 17:01/M
256 Jena McBay Madison GA 157 51 F 9 50-54 52:54.3 17:04/M
257 Haley McBay Madison GA 156 23 F 40 20-24 52:55.2 17:04/M
258 Tina Gillian Milledgeville GA 85 39 F 4 35-39 53:11.9 17:09/M
259 Lindsay Petrey Milledgeville GA 195 20 F 41 20-24 54:03.9 17:26/M
260 Allie Jackson Sandersville GA 116 20 F 42 20-24 54:55.8 17:43/M
261 Susan Moore Mcdonough GA 178 52 F 10 50-54 54:56.1 17:43/M
262 Stephanie Soll Marietta GA 246 18 F 66 15-19 55:16.6 17:50/M
263 Chelsie Moore Milledgeville GA 172 21 F 43 20-24 55:37.1 17:56/M
264 Audrey Uzzo Eatonton GA 272 9 F 2 0-10 55:37.7 17:56/M
265 Tamara Kennedy Milledgeville GA 130 13 M 6 11-14 55:55.3 18:02/M
266 Josey Gillian Milledgeville GA 83 13 F 5 11-14 55:58.6 18:03/M
267 Ron Buice 366 46 M 9 45-49 56:01.1 18:04/M
268 Laura Alonso Sugar Hill GA 5 53 F 11 50-54 56:09.6 18:07/M
269 Javier Alonso Sugar Hill GA 4 61 M 2 60-64 56:10.1 18:07/M
270 Tonya Swain Loganville GA 261 42 F 7 40-44 57:03.4 18:24/M
271 Gray Lewis Waynesboro GA 140 20 F 44 20-24 57:27.8 18:32/M
272 Laney Lewis Waynesboro GA 141 22 F 45 20-24 57:30.6 18:33/M
273 Leah Hobgoid Cartersville GA 110 49 F 12 45-49 57:54.3 18:41/M
274 Debbie Justus Cartersville GA 126 50 F 12 50-54 57:56.4 18:41/M